首页
METAR-TAF:

METAR-TAF

机场 :

McGhee Tyson Airport

諾克斯維爾, 田纳西州, 美国

纬度: 35-49-05N, 经度: 083-59-09W, 海拔: 299米

当前天气观测

该预报发布于59分钟前的06:53 UTC
静风
温度 6°C
湿度 81%
气压 1024 hPa
能見度: 16.1公里
阴天层高于15000英尺

METAR: KTYS 210653Z 00000KT 10SM OVC150 06/03 A3023 RMK AO2 SLP237 T00560028

时间: 02:52 (07:52 UTC)

预报

该预报发布于2小时和30分钟前的05:22 UTC
预报有效从21日的 06点(UTC)到 22日的 06点(UTC)
风速2节,风向多变
能見度: 10公里
多云层高于25000英尺
从 21日的 1600点(UTC)
风速7节,风向西转西南
能見度: 10公里
多云层高于15000英尺
从 22日的 0000点(UTC)
风速5节,风向西南
能見度: 10公里
阴天层高于8000英尺

TAF: KTYS 210522Z 2106/2206 VRB02KT P6SM BKN250 FM211600 24007KT P6SM BKN150 FM220000 23005KT P6SM OVC080

超过4000个机场的气象观测和天气预报(METAR&TAF报告)。

可查询的气象台以黄色和红色小点在地图上表示。

将鼠标移到小点上方,可查看气象台名称。

然后点击查看天气观测和预报。

如需切换地图:点击带黑十字的绿色按钮放大地图;点击带横线的绿色按钮缩小地图;或者点击绿色箭头查看邻近地区的地图。


METAR-TAF: